Terminal Aerodrome Forecast
Issued by NWS Portland, ME

Home | Current Version | Previous Version | Text Only | Print | Product List | Glossary On
Versions: 1 2 3 4 5 6 7 8 9 10 11 12 13 14 15 16 17 18
000
FTUS41 KGYX 310906 AAB
TAFCON
TAF AMD
KCON 310906Z 3109/0106 16005KT P6SM SCT025
     FM311000 17004KT P6SM OVC025
     FM311300 22007KT P6SM BKN050
     FM312000 20008KT 6SM -SHRA BKN045=

USA.gov is the U.S. government's official web portal to all federal, state and local government web resources and services.